createdAt,value
2018-04-07T00:00:09.693Z,101036.19
2018-04-07T00:02:43.252Z,101038.86
2018-04-07T00:05:17.067Z,101054.45
2018-04-07T00:10:31.738Z,101061.36
2018-04-07T00:13:04.802Z,101064.59
2018-04-07T00:15:38.743Z,101071.92
2018-04-07T00:18:11.579Z,101078.17
2018-04-07T00:20:44.677Z,101099.69
2018-04-07T00:23:17.376Z,101089.44
2018-04-07T00:25:51.086Z,101083.01
2018-04-07T00:28:23.691Z,101070.26
2018-04-07T00:30:56.781Z,101069.42
2018-04-07T00:33:29.327Z,101064.64
2018-04-07T00:36:02.486Z,101066.22
2018-04-07T00:38:35.332Z,101066.88
2018-04-07T00:41:08.499Z,101081.55
2018-04-07T00:43:40.676Z,101063.40
2018-04-07T00:46:13.858Z,101044.37
2018-04-07T00:48:46.688Z,101050.55
2018-04-07T00:51:19.596Z,101047.39
2018-04-07T00:53:52.172Z,101057.22
2018-04-07T00:56:25.073Z,101056.30
2018-04-07T00:58:57.719Z,101060.05
2018-04-07T01:01:32.995Z,101076.45
2018-04-07T01:04:06.731Z,101088.06
2018-04-07T01:06:42.978Z,101073.89
2018-04-07T01:09:18.090Z,101065.46
2018-04-07T01:11:52.375Z,101069.95
2018-04-07T01:14:25.964Z,101056.30
2018-04-07T01:16:58.715Z,101067.59
2018-04-07T01:19:31.370Z,101065.09
2018-04-07T01:22:05.407Z,101063.44
2018-04-07T01:24:39.689Z,101079.94
2018-04-07T01:29:40.604Z,101089.88
2018-04-07T01:32:14.813Z,101088.61
2018-04-07T01:34:47.381Z,101096.12
2018-04-07T01:37:20.491Z,101089.45
2018-04-07T01:39:53.317Z,101087.53
2018-04-07T01:42:27.114Z,101091.53
2018-04-07T01:44:59.335Z,101111.05
2018-04-07T01:47:32.208Z,101086.97
2018-04-07T01:50:04.815Z,101084.86
2018-04-07T01:52:40.226Z,101074.97
2018-04-07T01:55:12.723Z,101083.11
2018-04-07T01:57:45.351Z,101084.19
2018-04-07T02:00:18.229Z,101086.44
2018-04-07T02:02:52.129Z,101084.78
2018-04-07T02:05:24.761Z,101085.34
2018-04-07T02:07:57.630Z,101090.78
2018-04-07T02:10:30.463Z,101082.77
2018-04-07T02:13:02.695Z,101076.00
2018-04-07T02:15:36.139Z,101080.24
2018-04-07T02:18:10.041Z,101082.84
2018-04-07T02:20:42.382Z,101091.41
2018-04-07T02:23:15.099Z,101080.24
2018-04-07T02:25:49.339Z,101081.26
2018-04-07T02:28:22.768Z,101100.91
2018-04-07T02:30:56.697Z,101108.98
2018-04-07T02:33:31.607Z,101112.48
2018-04-07T02:36:05.635Z,101096.06
2018-04-07T02:38:40.569Z,101092.84
2018-04-07T02:41:13.840Z,101072.06
2018-04-07T02:43:48.217Z,101049.91
2018-04-07T02:46:21.371Z,101061.91
2018-04-07T02:48:56.066Z,101062.05
2018-04-07T02:51:29.484Z,101074.97
2018-04-07T02:54:05.729Z,101083.06
2018-04-07T02:59:17.012Z,101083.97
2018-04-07T03:01:49.879Z,101081.80
2018-04-07T03:04:23.198Z,101089.48
2018-04-07T03:06:55.236Z,101089.06
2018-04-07T03:09:27.927Z,101087.30
2018-04-07T03:17:15.304Z,101089.14
2018-04-07T03:19:48.429Z,101087.39
2018-04-07T03:22:21.263Z,101079.98
2018-04-07T03:24:54.268Z,101084.40
2018-04-07T03:32:40.932Z,101083.80
2018-04-07T03:35:14.568Z,101083.97
2018-04-07T03:37:46.741Z,101094.58
2018-04-07T03:40:19.277Z,101085.31
2018-04-07T03:50:45.228Z,101091.32
2018-04-07T03:53:18.208Z,101089.56
2018-04-07T04:01:08.870Z,101103.06
2018-04-07T04:03:42.520Z,101100.40
2018-04-07T04:06:16.722Z,101104.82
2018-04-07T04:14:03.180Z,101114.23
2018-04-07T04:16:35.854Z,101135.98
2018-04-07T04:19:07.947Z,101142.06
2018-04-07T04:21:40.812Z,101115.98
2018-04-07T04:24:13.356Z,101115.14
2018-04-07T04:26:45.750Z,101112.41
2018-04-07T04:29:19.239Z,101113.73
2018-04-07T04:31:51.735Z,101112.72
2018-04-07T04:34:24.360Z,101114.23
2018-04-07T04:36:57.585Z,101122.65
2018-04-07T04:39:30.267Z,101128.89
2018-04-07T04:42:03.282Z,101126.30
2018-04-07T04:44:36.034Z,101135.98
2018-04-07T04:47:09.002Z,101140.05
2018-04-07T04:49:41.577Z,101124.54
2018-04-07T04:52:14.578Z,101133.38
2018-04-07T04:54:47.267Z,101133.88
2018-04-07T04:57:21.287Z,101132.90
2018-04-07T04:59:54.273Z,101125.80
2018-04-07T05:02:29.159Z,101118.65
2018-04-07T05:05:02.621Z,101122.65
2018-04-07T05:07:35.652Z,101125.25
2018-04-07T05:10:09.379Z,101122.06
2018-04-07T05:12:42.809Z,101121.99
2018-04-07T05:15:17.042Z,101124.41
2018-04-07T05:17:49.685Z,101128.23
2018-04-07T05:20:23.219Z,101138.48
2018-04-07T05:22:56.411Z,101125.08
2018-04-07T05:25:29.659Z,101117.50
2018-04-07T05:28:03.601Z,101113.56
2018-04-07T05:30:36.274Z,101113.98
2018-04-07T05:33:08.803Z,101098.90
2018-04-07T05:35:41.936Z,101100.82
2018-04-07T05:38:15.382Z,101094.22
2018-04-07T05:40:48.777Z,101091.48
2018-04-07T05:43:21.605Z,101097.73
2018-04-07T05:45:54.309Z,101099.98
2018-04-07T05:48:27.240Z,101090.16
2018-04-07T05:51:00.231Z,101083.55
2018-04-07T05:53:33.147Z,101076.63
2018-04-07T05:56:05.446Z,101065.48
2018-04-07T05:58:39.019Z,101061.05
2018-04-07T06:01:12.468Z,101068.53
2018-04-07T06:03:45.458Z,101059.55
2018-04-07T06:06:18.315Z,101059.63
2018-04-07T06:08:51.262Z,101068.53
2018-04-07T06:11:24.372Z,101067.06
2018-04-07T06:13:57.858Z,101072.04
2018-04-07T06:16:30.294Z,101079.55
2018-04-07T06:19:03.819Z,101082.71
2018-04-07T06:21:36.526Z,101068.63
2018-04-07T06:24:08.798Z,101059.37
2018-04-07T06:26:41.619Z,101054.45
2018-04-07T06:29:14.584Z,101055.05
2018-04-07T06:31:47.440Z,101070.52
2018-04-07T06:34:20.629Z,101077.19
2018-04-07T06:36:52.899Z,101084.87
2018-04-07T06:39:25.686Z,101085.72
2018-04-07T06:41:57.895Z,101101.19
2018-04-07T06:44:30.278Z,101106.88
2018-04-07T06:47:02.586Z,101101.13
2018-04-07T06:49:34.782Z,101102.45
2018-04-07T06:52:07.650Z,101096.64
2018-04-07T06:54:40.318Z,101087.63
2018-04-07T06:57:12.821Z,101085.38
2018-04-07T06:59:45.811Z,101086.29
2018-04-07T07:02:18.541Z,101085.31
2018-04-07T07:04:51.323Z,101072.23
2018-04-07T07:07:24.810Z,101069.73
2018-04-07T07:09:57.689Z,101076.89
2018-04-07T07:12:30.411Z,101072.63
2018-04-07T07:15:03.235Z,101072.04
2018-04-07T07:17:36.235Z,101067.72
2018-04-07T07:20:08.690Z,101045.29
2018-04-07T07:22:45.181Z,101041.78
2018-04-07T07:25:18.427Z,101029.84
2018-04-07T07:27:52.418Z,101025.95
2018-04-07T07:30:25.302Z,101036.69
2018-04-07T07:32:59.947Z,101037.66
2018-04-07T07:35:33.079Z,101034.09
2018-04-07T07:38:05.786Z,101036.02
2018-04-07T07:40:38.913Z,101035.34
2018-04-07T07:43:11.785Z,101041.72
2018-04-07T07:46:42.507Z,101044.44
2018-04-07T07:49:15.283Z,101049.18
2018-04-07T07:51:48.142Z,101063.84
2018-04-07T07:54:21.446Z,101082.67
2018-04-07T07:56:53.838Z,101081.77
2018-04-07T07:59:27.420Z,101071.17
2018-04-07T08:02:00.413Z,101076.56
2018-04-07T08:04:32.834Z,101078.56
2018-04-07T08:07:05.712Z,101083.57
2018-04-07T08:09:38.623Z,101077.88
2018-04-07T08:12:10.791Z,101062.48
2018-04-07T08:14:43.449Z,101055.71
2018-04-07T08:17:16.335Z,101062.97
2018-04-07T08:19:49.011Z,101049.63
2018-04-07T08:22:21.806Z,101037.88
2018-04-07T08:24:54.815Z,101015.22
2018-04-07T08:27:27.791Z,101009.95
2018-04-07T08:30:00.812Z,101018.96
2018-04-07T08:32:33.842Z,101045.62
2018-04-07T08:35:06.453Z,101029.13
2018-04-07T08:37:39.722Z,101026.05
2018-04-07T08:41:49.712Z,101016.05
2018-04-07T08:44:22.329Z,101037.37
2018-04-07T08:46:54.834Z,101041.79
2018-04-07T08:49:28.163Z,101041.20
2018-04-07T08:52:00.658Z,101020.78
2018-04-07T08:54:33.268Z,101019.52
2018-04-07T08:57:05.935Z,100999.45
2018-04-07T08:59:38.811Z,101016.36
2018-04-07T09:02:11.162Z,101020.36
2018-04-07T09:04:43.943Z,101016.36
2018-04-07T09:07:16.340Z,101001.28
2018-04-07T09:09:49.325Z,100981.29
2018-04-07T09:12:21.413Z,100974.30
2018-04-07T09:14:54.906Z,100982.44
2018-04-07T09:17:27.729Z,100993.10
2018-04-07T09:20:00.847Z,100994.11
2018-04-07T09:22:33.241Z,100979.52
2018-04-07T09:25:06.188Z,100993.37
2018-04-07T09:27:39.198Z,101008.09
2018-04-07T09:30:11.721Z,101000.59
2018-04-07T09:32:44.826Z,100993.92
2018-04-07T09:35:17.327Z,101003.09
2018-04-07T09:37:50.999Z,101007.61
2018-04-07T09:40:24.111Z,100998.77
2018-04-07T09:42:56.497Z,100989.86
2018-04-07T09:45:29.396Z,100981.09
2018-04-07T09:48:02.368Z,100981.68
2018-04-07T09:50:35.212Z,100979.02
2018-04-07T09:53:08.180Z,100976.77
2018-04-07T09:55:40.374Z,100994.16
2018-04-07T09:58:13.227Z,100996.34
2018-04-07T10:00:49.499Z,100991.08
2018-04-07T10:03:24.845Z,100982.34
2018-04-07T10:05:58.062Z,100985.75
2018-04-07T10:08:30.739Z,100993.25
2018-04-07T10:11:03.920Z,100986.59
2018-04-07T10:13:37.531Z,100972.77
2018-04-07T10:16:10.296Z,100963.34
2018-04-07T10:18:42.879Z,100961.88
2018-04-07T10:21:15.229Z,100945.28
2018-04-07T10:23:48.140Z,100936.87
2018-04-07T10:26:20.778Z,100942.06
2018-04-07T10:28:54.327Z,100942.98
2018-04-07T10:31:27.232Z,100939.72
2018-04-07T10:33:59.507Z,100921.55
2018-04-07T10:36:32.381Z,100910.89
2018-04-07T10:39:05.224Z,100926.88
2018-04-07T10:41:38.201Z,100928.73
2018-04-07T10:44:10.437Z,100938.55
2018-04-07T10:46:42.808Z,100943.47
2018-04-07T10:49:15.857Z,100952.37
2018-04-07T10:51:48.407Z,100943.95
2018-04-07T10:54:21.197Z,100955.04
2018-04-07T10:56:54.021Z,100961.21
2018-04-07T10:59:27.379Z,100964.37
2018-04-07T11:02:00.391Z,100975.09
2018-04-07T11:04:33.405Z,100982.19
2018-04-07T11:07:06.418Z,100997.44
2018-04-07T11:09:39.042Z,101003.09
2018-04-07T11:12:11.383Z,101002.17
2018-04-07T11:14:43.903Z,100991.94
2018-04-07T11:17:16.529Z,100978.54
2018-04-07T11:19:50.373Z,100974.44
2018-04-07T11:22:23.222Z,100956.38
2018-04-07T11:24:55.601Z,100983.77
2018-04-07T11:27:28.096Z,100980.72
2018-04-07T11:30:00.497Z,100979.28
2018-04-07T11:32:33.409Z,100990.78
2018-04-07T11:35:06.073Z,101006.43
2018-04-07T11:37:39.312Z,101027.27
2018-04-07T11:40:11.952Z,101040.59
2018-04-07T11:42:45.307Z,101024.11
2018-04-07T11:45:18.166Z,101012.11
2018-04-07T11:47:50.940Z,101005.87
2018-04-07T11:50:23.827Z,100985.10
2018-04-07T11:52:56.528Z,100990.11
2018-04-07T11:55:29.814Z,101006.77
2018-04-07T11:58:03.403Z,101015.50
2018-04-07T12:00:36.440Z,101018.69
2018-04-07T12:03:09.252Z,101021.19
2018-04-07T12:05:41.755Z,101020.59
2018-04-07T12:08:14.930Z,101012.11
2018-04-07T12:10:47.927Z,101007.69
2018-04-07T12:13:20.322Z,101018.78
2018-04-07T12:15:53.385Z,101013.94
2018-04-07T12:18:26.407Z,101028.59
2018-04-07T12:20:59.021Z,101036.52
2018-04-07T12:23:32.252Z,101029.02
2018-04-07T12:26:05.546Z,101026.94
2018-04-07T12:28:38.541Z,101030.16
2018-04-07T12:31:11.829Z,101030.27
2018-04-07T12:33:44.968Z,101024.02
2018-04-07T12:36:17.801Z,101032.51
2018-04-07T12:38:50.839Z,101036.08
2018-04-07T12:41:24.050Z,101036.92
2018-04-07T12:43:57.095Z,101039.66
2018-04-07T12:46:29.775Z,101051.16
2018-04-07T12:49:02.418Z,101056.56
2018-04-07T12:51:35.271Z,101062.81
2018-04-07T12:54:07.543Z,101071.72
2018-04-07T12:56:40.454Z,101068.63
2018-04-07T12:59:14.435Z,101075.81
2018-04-07T13:01:48.487Z,101101.03
2018-04-07T13:04:20.069Z,101116.89
2018-04-07T13:06:53.271Z,101108.48
2018-04-07T13:09:26.040Z,101111.98
2018-04-07T13:11:58.464Z,101108.31
2018-04-07T13:14:31.225Z,101129.64
2018-04-07T13:17:03.541Z,101115.47
2018-04-07T13:19:36.751Z,101118.97
2018-04-07T13:22:09.430Z,101137.21
2018-04-07T13:24:41.957Z,101136.47
2018-04-07T13:27:14.960Z,101138.64
2018-04-07T13:29:47.336Z,101126.22
2018-04-07T13:32:20.344Z,101118.13
2018-04-07T13:34:53.086Z,101119.20
2018-04-07T13:37:26.256Z,101115.70
2018-04-07T13:39:58.923Z,101107.14
2018-04-07T13:42:32.131Z,101112.89
2018-04-07T13:45:05.251Z,101111.14
2018-04-07T13:47:38.282Z,101124.53
2018-04-07T13:50:10.803Z,101126.97
2018-04-07T13:52:43.897Z,101130.12
2018-04-07T13:55:17.428Z,101152.23
2018-04-07T13:57:50.439Z,101140.66
2018-04-07T14:00:23.411Z,101147.31
2018-04-07T14:02:56.535Z,101148.23
2018-04-07T14:05:29.970Z,101155.97
2018-04-07T14:08:02.967Z,101161.63
2018-04-07T14:10:35.927Z,101165.55
2018-04-07T14:13:08.934Z,101168.64
2018-04-07T14:15:41.455Z,101168.64
2018-04-07T14:18:14.251Z,101167.87
2018-04-07T14:20:46.962Z,101179.11
2018-04-07T14:23:20.118Z,101183.38
2018-04-07T14:25:53.754Z,101182.95
2018-04-07T14:28:26.296Z,101194.62
2018-04-07T14:30:59.176Z,101196.34
2018-04-07T14:33:31.565Z,101192.77
2018-04-07T14:36:03.982Z,101194.62
2018-04-07T14:38:37.070Z,101206.87
2018-04-07T14:41:09.571Z,101201.12
2018-04-07T14:43:42.467Z,101201.38
2018-04-07T14:46:15.447Z,101207.45
2018-04-07T14:48:47.784Z,101207.45
2018-04-07T14:51:21.019Z,101212.17
2018-04-07T14:53:53.574Z,101208.98
2018-04-07T14:56:26.292Z,101208.43
2018-04-07T14:58:59.452Z,101208.85
2018-04-07T15:01:32.882Z,101206.45
2018-04-07T15:04:06.118Z,101208.20
2018-04-07T15:06:38.855Z,101194.02
2018-04-07T15:09:11.092Z,101206.45
2018-04-07T15:11:45.092Z,101205.02
2018-04-07T15:14:18.167Z,101202.70
2018-04-07T15:16:50.498Z,101206.22
2018-04-07T15:19:23.364Z,101204.39
2018-04-07T15:21:56.365Z,101206.96
2018-04-07T15:24:29.609Z,101219.22
2018-04-07T15:27:02.900Z,101224.06
2018-04-07T15:29:35.871Z,101229.09
2018-04-07T15:32:09.555Z,101224.94
2018-04-07T15:34:41.998Z,101234.63
2018-04-07T15:38:24.447Z,101237.00
2018-04-07T15:40:57.307Z,101239.34
2018-04-07T15:43:29.987Z,101240.86
2018-04-07T15:46:02.862Z,101240.20
2018-04-07T15:48:35.510Z,101244.27
2018-04-07T15:51:09.111Z,101257.55
2018-04-07T15:53:42.221Z,101260.95
2018-04-07T15:56:14.575Z,101258.22
2018-04-07T15:58:48.860Z,101265.73
2018-04-07T16:01:22.617Z,101269.73
2018-04-07T16:03:55.105Z,101274.23
2018-04-07T16:06:27.606Z,101281.64
2018-04-07T16:09:00.495Z,101283.23
2018-04-07T16:11:32.987Z,101289.84
2018-04-07T16:14:06.017Z,101283.42
2018-04-07T16:16:38.467Z,101285.96
2018-04-07T16:19:11.475Z,101291.63
2018-04-07T16:21:44.328Z,101294.97
2018-04-07T16:24:17.137Z,101295.23
2018-04-07T16:26:49.596Z,101304.33
2018-04-07T16:29:22.473Z,101305.44
2018-04-07T16:31:55.100Z,101311.45
2018-04-07T16:34:28.030Z,101305.82
2018-04-07T16:37:00.944Z,101308.52
2018-04-07T16:39:33.939Z,101319.80
2018-04-07T16:42:06.263Z,101321.40
2018-04-07T16:44:38.959Z,101330.99
2018-04-07T16:47:11.151Z,101328.03
2018-04-07T16:49:43.721Z,101338.96
2018-04-07T16:52:17.021Z,101353.89
2018-04-07T16:54:49.990Z,101355.30
2018-04-07T16:57:26.390Z,101363.20
2018-04-07T17:02:22.351Z,101362.02
2018-04-07T17:04:55.740Z,101376.77
2018-04-07T17:07:29.523Z,101378.78
2018-04-07T17:10:02.302Z,101382.48
2018-04-07T17:12:34.520Z,101378.74
2018-04-07T17:16:57.007Z,101372.55
2018-04-07T17:19:29.942Z,101385.41
2018-04-07T17:22:03.883Z,101386.09
2018-04-07T17:24:36.463Z,101397.02
2018-04-07T17:27:09.006Z,101403.89
2018-04-07T17:29:42.047Z,101417.37
2018-04-07T17:32:15.506Z,101419.28
2018-04-07T17:35:36.200Z,101440.25
2018-04-07T17:38:09.045Z,101434.09
2018-04-07T17:40:42.312Z,101433.37
2018-04-07T17:43:15.041Z,101440.80
2018-04-07T17:45:48.488Z,101438.32
2018-04-07T17:48:21.339Z,101444.83
2018-04-07T17:50:54.124Z,101447.44
2018-04-07T17:53:26.983Z,101452.28
2018-04-07T17:55:59.203Z,101455.54
2018-04-07T17:58:32.356Z,101461.50
2018-04-07T18:01:05.179Z,101465.30
2018-04-07T18:03:38.727Z,101466.08
2018-04-07T18:06:11.206Z,101479.33
2018-04-07T18:08:44.320Z,101477.52
2018-04-07T18:11:17.054Z,101483.34
2018-04-07T18:13:49.853Z,101489.40
2018-04-07T18:16:23.341Z,101493.14
2018-04-07T18:18:56.342Z,101496.53
2018-04-07T18:21:29.430Z,101499.36
2018-04-07T18:24:01.627Z,101504.14
2018-04-07T18:26:34.503Z,101505.41
2018-04-07T18:29:07.752Z,101506.58
2018-04-07T18:31:40.923Z,101511.20
2018-04-07T18:34:14.231Z,101511.78
2018-04-07T18:36:47.207Z,101517.78
2018-04-07T18:39:19.629Z,101521.32
2018-04-07T18:41:52.684Z,101526.27
2018-04-07T18:44:26.056Z,101530.53
2018-04-07T18:46:59.140Z,101527.75
2018-04-07T18:49:32.339Z,101531.06
2018-04-07T18:52:04.513Z,101524.63
2018-04-07T18:54:37.043Z,101518.55
2018-04-07T18:57:09.974Z,101524.34
2018-04-07T18:59:42.681Z,101526.36
2018-04-07T19:02:16.043Z,101532.32
2018-04-07T19:04:48.917Z,101530.77
2018-04-07T19:07:21.527Z,101528.97
2018-04-07T19:09:54.127Z,101532.44
2018-04-07T19:12:27.521Z,101526.26
2018-04-07T19:15:00.554Z,101520.30
2018-04-07T19:17:33.155Z,101515.24
2018-04-07T19:20:06.171Z,101509.66
2018-04-07T19:22:38.991Z,101515.08
2018-04-07T19:25:12.555Z,101514.61
2018-04-07T19:27:44.658Z,101511.33
2018-04-07T19:30:17.083Z,101507.69
2018-04-07T19:33:31.705Z,101510.26
2018-04-07T19:36:04.532Z,101508.33
2018-04-07T19:38:37.427Z,101501.31
2018-04-07T19:41:10.074Z,101509.73
2018-04-07T19:43:43.418Z,101512.66
2018-04-07T19:46:16.046Z,101518.23
2018-04-07T19:48:49.022Z,101509.51
2018-04-07T19:51:21.373Z,101508.97
2018-04-07T19:53:53.957Z,101513.59
2018-04-07T19:56:26.535Z,101515.53
2018-04-07T19:58:59.198Z,101511.30
2018-04-07T20:01:32.661Z,101513.92
2018-04-07T20:04:06.070Z,101516.11
2018-04-07T20:06:38.957Z,101520.68
2018-04-07T20:09:11.523Z,101524.42
2018-04-07T20:11:44.078Z,101532.64
2018-04-07T20:14:16.561Z,101539.43
2018-04-07T20:16:49.456Z,101544.81
2018-04-07T20:19:21.606Z,101539.78
2018-04-07T20:21:54.242Z,101532.03
2018-04-07T20:24:27.583Z,101541.75
2018-04-07T20:26:59.949Z,101528.86
2018-04-07T20:29:32.814Z,101532.44
2018-04-07T20:32:06.571Z,101537.08
2018-04-07T20:34:39.220Z,101538.70
2018-04-07T20:37:12.078Z,101541.55
2018-04-07T20:39:45.534Z,101545.37
2018-04-07T20:42:30.794Z,101543.63
2018-04-07T20:45:04.068Z,101538.47
2018-04-07T20:47:37.238Z,101544.45
2018-04-07T20:50:10.095Z,101545.63
2018-04-07T20:52:43.124Z,101539.05
2018-04-07T20:55:16.164Z,101539.56
2018-04-07T20:57:48.564Z,101549.01
2018-04-07T21:00:21.235Z,101544.61
2018-04-07T21:02:54.236Z,101545.87
2018-04-07T21:05:26.640Z,101538.70
2018-04-07T21:07:59.404Z,101541.58
2018-04-07T21:10:32.372Z,101545.37
2018-04-07T21:13:05.110Z,101548.77
2018-04-07T21:15:37.223Z,101545.58
2018-04-07T21:18:09.667Z,101549.27
2018-04-07T21:20:42.213Z,101554.32
2018-04-07T21:23:14.629Z,101554.71
2018-04-07T21:25:47.576Z,101555.78
2018-04-07T21:28:20.566Z,101553.63
2018-04-07T21:30:53.485Z,101556.96
2018-04-07T21:33:26.902Z,101554.06
2018-04-07T21:35:59.398Z,101561.06
2018-04-07T21:38:31.634Z,101563.28
2018-04-07T21:41:04.381Z,101566.07
2018-04-07T21:43:37.007Z,101565.75
2018-04-07T21:46:09.922Z,101556.63
2018-04-07T21:48:43.438Z,101559.70
2018-04-07T21:51:16.895Z,101562.98
2018-04-07T21:53:49.987Z,101566.02
2018-04-07T21:56:22.875Z,101570.17
2018-04-07T21:58:56.300Z,101571.31
2018-04-07T22:01:28.410Z,101561.94
2018-04-07T22:04:01.274Z,101573.08
2018-04-07T22:06:33.524Z,101578.53
2018-04-07T22:09:06.089Z,101576.84
2018-04-07T22:11:38.762Z,101580.45
2018-04-07T22:14:12.083Z,101579.42
2018-04-07T22:16:44.940Z,101571.34
2018-04-07T22:19:17.919Z,101572.38
2018-04-07T22:21:51.380Z,101577.96
2018-04-07T22:24:24.070Z,101580.97
2018-04-07T22:26:57.515Z,101583.59
2018-04-07T22:29:30.432Z,101584.80
2018-04-07T22:32:03.577Z,101588.33
2018-04-07T22:34:36.455Z,101591.54
2018-04-07T22:37:10.945Z,101586.75
2018-04-07T22:39:43.737Z,101591.33
2018-04-07T22:42:17.411Z,101604.11
2018-04-07T22:44:50.239Z,101604.30
2018-04-07T22:47:23.435Z,101600.60
2018-04-07T22:49:56.243Z,101586.30
2018-04-07T22:52:29.528Z,101603.52
2018-04-07T22:55:02.903Z,101601.62
2018-04-07T22:57:35.829Z,101593.88
2018-04-07T23:00:09.329Z,101579.56
2018-04-07T23:02:42.110Z,101595.25
2018-04-07T23:05:15.419Z,101598.12
2018-04-07T23:07:48.036Z,101603.78
2018-04-07T23:10:20.746Z,101596.52
2018-04-07T23:12:52.942Z,101598.63
2018-04-07T23:15:25.535Z,101594.44
2018-04-07T23:17:58.441Z,101602.55
2018-04-07T23:20:31.271Z,101599.03
2018-04-07T23:23:03.944Z,101592.09
2018-04-07T23:25:36.836Z,101607.84
2018-04-07T23:28:09.284Z,101608.77
2018-04-07T23:30:42.485Z,101602.73
2018-04-07T23:33:15.283Z,101610.61
2018-04-07T23:35:48.867Z,101605.25
2018-04-07T23:38:22.561Z,101609.10
2018-04-07T23:40:57.305Z,101611.72
2018-04-07T23:43:33.599Z,101615.45
2018-04-07T23:46:10.635Z,101611.55
2018-04-07T23:48:44.502Z,101609.11
2018-04-07T23:51:17.145Z,101625.34
2018-04-07T23:53:50.291Z,101625.27
2018-04-07T23:56:22.468Z,101621.25
2018-04-07T23:58:55.030Z,101623.75
